sensor_id;sensor_type;location;lat;lon;timestamp;P1;durP1;ratioP1;P2;durP2;ratioP2
7669;SDS011;3877;42.562;27.636;2022-10-16T00:01:07;19.13;;;11.93;;
7669;SDS011;3877;42.562;27.636;2022-10-16T00:03:36;28.27;;;12.73;;
7669;SDS011;3877;42.562;27.636;2022-10-16T00:06:03;30.20;;;13.83;;
7669;SDS011;3877;42.562;27.636;2022-10-16T00:08:31;25.20;;;12.43;;
7669;SDS011;3877;42.562;27.636;2022-10-16T00:11:02;21.03;;;12.20;;
7669;SDS011;3877;42.562;27.636;2022-10-16T00:13:31;22.90;;;12.60;;
7669;SDS011;3877;42.562;27.636;2022-10-16T00:15:59;21.83;;;12.03;;
7669;SDS011;3877;42.562;27.636;2022-10-16T00:18:28;30.17;;;13.30;;
7669;SDS011;3877;42.562;27.636;2022-10-16T00:21:00;29.83;;;12.00;;
7669;SDS011;3877;42.562;27.636;2022-10-16T00:23:29;31.73;;;13.50;;
7669;SDS011;3877;42.562;27.636;2022-10-16T00:25:57;33.33;;;13.50;;
7669;SDS011;3877;42.562;27.636;2022-10-16T00:28:27;28.13;;;13.13;;
7669;SDS011;3877;42.562;27.636;2022-10-16T00:30:54;32.27;;;13.60;;
7669;SDS011;3877;42.562;27.636;2022-10-16T00:33:22;31.33;;;13.57;;
7669;SDS011;3877;42.562;27.636;2022-10-16T00:35:49;17.93;;;11.73;;
7669;SDS011;3877;42.562;27.636;2022-10-16T00:38:17;26.20;;;12.90;;
7669;SDS011;3877;42.562;27.636;2022-10-16T00:40:44;19.37;;;12.37;;
7669;SDS011;3877;42.562;27.636;2022-10-16T00:43:32;17.50;;;11.80;;
7669;SDS011;3877;42.562;27.636;2022-10-16T00:46:02;16.60;;;12.17;;
7669;SDS011;3877;42.562;27.636;2022-10-16T00:48:32;18.43;;;12.07;;
7669;SDS011;3877;42.562;27.636;2022-10-16T00:50:59;14.50;;;11.00;;
7669;SDS011;3877;42.562;27.636;2022-10-16T00:53:27;16.00;;;10.70;;
7669;SDS011;3877;42.562;27.636;2022-10-16T00:55:54;20.57;;;10.93;;
7669;SDS011;3877;42.562;27.636;2022-10-16T00:58:22;14.57;;;10.87;;
7669;SDS011;3877;42.562;27.636;2022-10-16T01:00:51;17.60;;;11.10;;
7669;SDS011;3877;42.562;27.636;2022-10-16T01:03:22;15.07;;;11.07;;
7669;SDS011;3877;42.562;27.636;2022-10-16T01:05:54;17.13;;;10.90;;
7669;SDS011;3877;42.562;27.636;2022-10-16T01:08:32;14.70;;;10.33;;
7669;SDS011;3877;42.562;27.636;2022-10-16T01:11:07;19.00;;;11.53;;
7669;SDS011;3877;42.562;27.636;2022-10-16T01:13:43;19.03;;;10.97;;
7669;SDS011;3877;42.562;27.636;2022-10-16T01:16:19;15.87;;;10.50;;
7669;SDS011;3877;42.562;27.636;2022-10-16T01:18:57;15.10;;;10.33;;
7669;SDS011;3877;42.562;27.636;2022-10-16T01:21:29;18.87;;;10.30;;
7669;SDS011;3877;42.562;27.636;2022-10-16T01:24:03;17.73;;;10.37;;
7669;SDS011;3877;42.562;27.636;2022-10-16T01:26:40;18.07;;;10.27;;
7669;SDS011;3877;42.562;27.636;2022-10-16T01:29:18;22.80;;;10.90;;
7669;SDS011;3877;42.562;27.636;2022-10-16T01:31:50;20.23;;;10.20;;
7669;SDS011;3877;42.562;27.636;2022-10-16T01:34:25;18.40;;;9.83;;
7669;SDS011;3877;42.562;27.636;2022-10-16T01:37:00;13.97;;;10.17;;
7669;SDS011;3877;42.562;27.636;2022-10-16T01:39:32;15.33;;;10.60;;
7669;SDS011;3877;42.562;27.636;2022-10-16T01:42:06;15.00;;;10.10;;
7669;SDS011;3877;42.562;27.636;2022-10-16T01:44:38;14.33;;;9.63;;
7669;SDS011;3877;42.562;27.636;2022-10-16T01:47:07;16.33;;;10.33;;
7669;SDS011;3877;42.562;27.636;2022-10-16T01:49:37;16.30;;;10.50;;
7669;SDS011;3877;42.562;27.636;2022-10-16T01:52:08;16.63;;;9.93;;
7669;SDS011;3877;42.562;27.636;2022-10-16T01:54:40;16.40;;;10.43;;
7669;SDS011;3877;42.562;27.636;2022-10-16T01:57:10;14.53;;;10.60;;
7669;SDS011;3877;42.562;27.636;2022-10-16T01:59:43;14.80;;;10.77;;
7669;SDS011;3877;42.562;27.636;2022-10-16T02:02:13;14.17;;;9.83;;
7669;SDS011;3877;42.562;27.636;2022-10-16T02:04:44;13.80;;;10.10;;
7669;SDS011;3877;42.562;27.636;2022-10-16T02:07:14;16.30;;;10.50;;
7669;SDS011;3877;42.562;27.636;2022-10-16T02:09:42;15.37;;;10.47;;
7669;SDS011;3877;42.562;27.636;2022-10-16T02:12:12;16.20;;;10.53;;
7669;SDS011;3877;42.562;27.636;2022-10-16T02:14:44;17.17;;;11.13;;
7669;SDS011;3877;42.562;27.636;2022-10-16T02:17:12;14.63;;;10.93;;
7669;SDS011;3877;42.562;27.636;2022-10-16T02:19:40;16.30;;;10.30;;
7669;SDS011;3877;42.562;27.636;2022-10-16T02:22:09;14.30;;;11.07;;
7669;SDS011;3877;42.562;27.636;2022-10-16T02:24:43;15.43;;;10.33;;
7669;SDS011;3877;42.562;27.636;2022-10-16T02:27:17;15.17;;;10.10;;
7669;SDS011;3877;42.562;27.636;2022-10-16T02:29:52;14.87;;;9.37;;
7669;SDS011;3877;42.562;27.636;2022-10-16T02:32:24;16.97;;;10.27;;
7669;SDS011;3877;42.562;27.636;2022-10-16T02:34:57;19.93;;;11.20;;
7669;SDS011;3877;42.562;27.636;2022-10-16T02:37:25;16.80;;;10.53;;
7669;SDS011;3877;42.562;27.636;2022-10-16T02:39:53;14.93;;;10.73;;
7669;SDS011;3877;42.562;27.636;2022-10-16T02:42:27;18.70;;;10.67;;
7669;SDS011;3877;42.562;27.636;2022-10-16T02:44:56;18.87;;;10.77;;
7669;SDS011;3877;42.562;27.636;2022-10-16T02:47:23;12.73;;;10.43;;
7669;SDS011;3877;42.562;27.636;2022-10-16T02:49:51;14.53;;;10.77;;
7669;SDS011;3877;42.562;27.636;2022-10-16T02:52:19;14.83;;;10.83;;
7669;SDS011;3877;42.562;27.636;2022-10-16T02:54:47;20.17;;;11.90;;
7669;SDS011;3877;42.562;27.636;2022-10-16T02:57:14;15.13;;;10.57;;
7669;SDS011;3877;42.562;27.636;2022-10-16T02:59:41;15.07;;;11.13;;
7669;SDS011;3877;42.562;27.636;2022-10-16T03:02:10;14.07;;;11.00;;
7669;SDS011;3877;42.562;27.636;2022-10-16T03:04:37;16.67;;;10.97;;
7669;SDS011;3877;42.562;27.636;2022-10-16T03:07:05;19.47;;;11.40;;
7669;SDS011;3877;42.562;27.636;2022-10-16T03:09:32;21.33;;;11.73;;
7669;SDS011;3877;42.562;27.636;2022-10-16T03:12:00;15.53;;;10.93;;
7669;SDS011;3877;42.562;27.636;2022-10-16T03:14:27;16.77;;;10.93;;
7669;SDS011;3877;42.562;27.636;2022-10-16T03:16:54;15.77;;;11.23;;
7669;SDS011;3877;42.562;27.636;2022-10-16T03:19:23;19.87;;;11.63;;
7669;SDS011;3877;42.562;27.636;2022-10-16T03:21:50;18.07;;;12.60;;
7669;SDS011;3877;42.562;27.636;2022-10-16T03:24:17;20.00;;;11.80;;
7669;SDS011;3877;42.562;27.636;2022-10-16T03:26:44;19.50;;;12.43;;
7669;SDS011;3877;42.562;27.636;2022-10-16T03:29:12;17.80;;;11.17;;
7669;SDS011;3877;42.562;27.636;2022-10-16T03:31:40;15.73;;;11.53;;
7669;SDS011;3877;42.562;27.636;2022-10-16T03:34:08;17.37;;;12.07;;
7669;SDS011;3877;42.562;27.636;2022-10-16T03:36:36;18.33;;;12.03;;
7669;SDS011;3877;42.562;27.636;2022-10-16T03:39:03;14.87;;;11.83;;
7669;SDS011;3877;42.562;27.636;2022-10-16T03:41:31;14.97;;;10.10;;
7669;SDS011;3877;42.562;27.636;2022-10-16T03:43:58;16.47;;;11.10;;
7669;SDS011;3877;42.562;27.636;2022-10-16T03:46:25;16.97;;;10.80;;
7669;SDS011;3877;42.562;27.636;2022-10-16T03:48:53;15.37;;;10.13;;
7669;SDS011;3877;42.562;27.636;2022-10-16T03:51:20;19.93;;;11.30;;
7669;SDS011;3877;42.562;27.636;2022-10-16T03:53:49;13.63;;;9.67;;
7669;SDS011;3877;42.562;27.636;2022-10-16T03:56:16;14.50;;;10.47;;
7669;SDS011;3877;42.562;27.636;2022-10-16T03:58:43;16.57;;;10.47;;
7669;SDS011;3877;42.562;27.636;2022-10-16T04:01:10;14.27;;;9.43;;
7669;SDS011;3877;42.562;27.636;2022-10-16T04:03:38;11.17;;;8.83;;
7669;SDS011;3877;42.562;27.636;2022-10-16T04:06:05;13.60;;;9.30;;
7669;SDS011;3877;42.562;27.636;2022-10-16T04:08:33;14.47;;;9.47;;
7669;SDS011;3877;42.562;27.636;2022-10-16T04:11:03;19.77;;;9.70;;
7669;SDS011;3877;42.562;27.636;2022-10-16T04:13:30;16.63;;;9.40;;
7669;SDS011;3877;42.562;27.636;2022-10-16T04:15:58;14.30;;;9.40;;
7669;SDS011;3877;42.562;27.636;2022-10-16T04:18:25;14.77;;;8.93;;
7669;SDS011;3877;42.562;27.636;2022-10-16T04:20:53;11.40;;;8.80;;
7669;SDS011;3877;42.562;27.636;2022-10-16T04:23:20;10.77;;;8.57;;
7669;SDS011;3877;42.562;27.636;2022-10-16T04:25:48;16.33;;;9.17;;
7669;SDS011;3877;42.562;27.636;2022-10-16T04:28:17;11.43;;;7.97;;
7669;SDS011;3877;42.562;27.636;2022-10-16T04:30:45;18.63;;;9.17;;
7669;SDS011;3877;42.562;27.636;2022-10-16T04:33:12;13.03;;;8.93;;
7669;SDS011;3877;42.562;27.636;2022-10-16T04:35:39;14.53;;;8.50;;
7669;SDS011;3877;42.562;27.636;2022-10-16T04:38:06;12.47;;;8.40;;
7669;SDS011;3877;42.562;27.636;2022-10-16T04:40:34;12.47;;;7.80;;
7669;SDS011;3877;42.562;27.636;2022-10-16T04:43:02;14.80;;;8.00;;
7669;SDS011;3877;42.562;27.636;2022-10-16T04:45:31;9.50;;;7.50;;
7669;SDS011;3877;42.562;27.636;2022-10-16T04:47:58;12.90;;;7.37;;
7669;SDS011;3877;42.562;27.636;2022-10-16T04:50:26;16.50;;;7.33;;
7669;SDS011;3877;42.562;27.636;2022-10-16T04:52:53;11.53;;;7.10;;
7669;SDS011;3877;42.562;27.636;2022-10-16T04:55:21;10.17;;;6.70;;
7669;SDS011;3877;42.562;27.636;2022-10-16T04:57:48;11.63;;;6.67;;
7669;SDS011;3877;42.562;27.636;2022-10-16T05:00:15;10.03;;;6.80;;
7669;SDS011;3877;42.562;27.636;2022-10-16T05:02:44;10.93;;;7.27;;
7669;SDS011;3877;42.562;27.636;2022-10-16T05:05:11;14.97;;;6.57;;
7669;SDS011;3877;42.562;27.636;2022-10-16T05:07:42;9.70;;;6.27;;
7669;SDS011;3877;42.562;27.636;2022-10-16T05:10:09;9.57;;;6.60;;
7669;SDS011;3877;42.562;27.636;2022-10-16T05:12:36;11.53;;;6.50;;
7669;SDS011;3877;42.562;27.636;2022-10-16T05:15:04;9.03;;;6.37;;
7669;SDS011;3877;42.562;27.636;2022-10-16T05:17:32;10.70;;;6.63;;
7669;SDS011;3877;42.562;27.636;2022-10-16T05:20:01;8.77;;;5.97;;
7669;SDS011;3877;42.562;27.636;2022-10-16T05:22:29;11.07;;;6.50;;
7669;SDS011;3877;42.562;27.636;2022-10-16T05:24:57;8.40;;;5.60;;
7669;SDS011;3877;42.562;27.636;2022-10-16T05:27:24;9.63;;;5.87;;
7669;SDS011;3877;42.562;27.636;2022-10-16T05:29:54;7.77;;;6.10;;
7669;SDS011;3877;42.562;27.636;2022-10-16T05:32:21;9.37;;;6.20;;
7669;SDS011;3877;42.562;27.636;2022-10-16T05:34:50;6.67;;;5.60;;
7669;SDS011;3877;42.562;27.636;2022-10-16T05:37:19;11.70;;;6.33;;
7669;SDS011;3877;42.562;27.636;2022-10-16T05:39:46;8.43;;;5.50;;
7669;SDS011;3877;42.562;27.636;2022-10-16T05:42:13;8.13;;;6.10;;
7669;SDS011;3877;42.562;27.636;2022-10-16T05:44:41;11.27;;;6.03;;
7669;SDS011;3877;42.562;27.636;2022-10-16T05:47:08;14.80;;;6.60;;
7669;SDS011;3877;42.562;27.636;2022-10-16T05:49:36;15.20;;;6.07;;
7669;SDS011;3877;42.562;27.636;2022-10-16T05:52:04;15.80;;;6.17;;
7669;SDS011;3877;42.562;27.636;2022-10-16T05:54:32;12.10;;;5.43;;
7669;SDS011;3877;42.562;27.636;2022-10-16T05:57:00;16.63;;;5.63;;
7669;SDS011;3877;42.562;27.636;2022-10-16T05:59:27;12.43;;;5.03;;
7669;SDS011;3877;42.562;27.636;2022-10-16T06:01:55;14.60;;;5.17;;
7669;SDS011;3877;42.562;27.636;2022-10-16T06:04:22;12.63;;;5.43;;
7669;SDS011;3877;42.562;27.636;2022-10-16T06:06:50;14.27;;;5.53;;
7669;SDS011;3877;42.562;27.636;2022-10-16T06:09:17;15.40;;;5.70;;
7669;SDS011;3877;42.562;27.636;2022-10-16T06:11:46;17.23;;;6.27;;
7669;SDS011;3877;42.562;27.636;2022-10-16T06:14:14;11.30;;;5.10;;
7669;SDS011;3877;42.562;27.636;2022-10-16T06:16:42;14.33;;;5.90;;
7669;SDS011;3877;42.562;27.636;2022-10-16T06:19:09;20.10;;;6.10;;
7669;SDS011;3877;42.562;27.636;2022-10-16T06:21:36;17.07;;;5.53;;
7669;SDS011;3877;42.562;27.636;2022-10-16T06:24:04;15.73;;;5.43;;
7669;SDS011;3877;42.562;27.636;2022-10-16T06:26:31;15.87;;;4.60;;
7669;SDS011;3877;42.562;27.636;2022-10-16T06:29:00;10.73;;;4.30;;
7669;SDS011;3877;42.562;27.636;2022-10-16T06:31:28;8.50;;;3.77;;
7669;SDS011;3877;42.562;27.636;2022-10-16T06:33:56;9.23;;;3.83;;
7669;SDS011;3877;42.562;27.636;2022-10-16T06:36:24;6.60;;;4.00;;
7669;SDS011;3877;42.562;27.636;2022-10-16T06:38:52;13.37;;;3.87;;
7669;SDS011;3877;42.562;27.636;2022-10-16T06:41:21;12.87;;;4.10;;
7669;SDS011;3877;42.562;27.636;2022-10-16T06:43:49;7.63;;;3.40;;
7669;SDS011;3877;42.562;27.636;2022-10-16T06:46:19;8.80;;;4.00;;
7669;SDS011;3877;42.562;27.636;2022-10-16T06:48:48;7.57;;;3.87;;
7669;SDS011;3877;42.562;27.636;2022-10-16T06:51:16;8.53;;;3.43;;
7669;SDS011;3877;42.562;27.636;2022-10-16T06:53:45;7.70;;;3.60;;
7669;SDS011;3877;42.562;27.636;2022-10-16T06:56:15;7.10;;;3.87;;
7669;SDS011;3877;42.562;27.636;2022-10-16T06:58:43;10.73;;;3.63;;
7669;SDS011;3877;42.562;27.636;2022-10-16T07:01:11;12.23;;;3.80;;
7669;SDS011;3877;42.562;27.636;2022-10-16T07:03:41;8.23;;;4.07;;
7669;SDS011;3877;42.562;27.636;2022-10-16T07:06:11;12.47;;;4.23;;
7669;SDS011;3877;42.562;27.636;2022-10-16T07:08:41;8.57;;;4.33;;
7669;SDS011;3877;42.562;27.636;2022-10-16T07:11:11;5.77;;;3.77;;
7669;SDS011;3877;42.562;27.636;2022-10-16T07:13:40;11.00;;;4.30;;
7669;SDS011;3877;42.562;27.636;2022-10-16T07:16:09;10.20;;;4.00;;
7669;SDS011;3877;42.562;27.636;2022-10-16T07:18:39;9.67;;;4.83;;
7669;SDS011;3877;42.562;27.636;2022-10-16T07:21:10;6.80;;;3.90;;
7669;SDS011;3877;42.562;27.636;2022-10-16T07:23:39;6.20;;;4.30;;
7669;SDS011;3877;42.562;27.636;2022-10-16T07:26:07;9.30;;;4.80;;
7669;SDS011;3877;42.562;27.636;2022-10-16T07:28:35;10.43;;;4.40;;
7669;SDS011;3877;42.562;27.636;2022-10-16T07:31:03;9.33;;;4.60;;
7669;SDS011;3877;42.562;27.636;2022-10-16T07:33:32;12.67;;;4.10;;
7669;SDS011;3877;42.562;27.636;2022-10-16T07:36:03;8.63;;;4.50;;
7669;SDS011;3877;42.562;27.636;2022-10-16T07:38:31;8.13;;;4.50;;
7669;SDS011;3877;42.562;27.636;2022-10-16T07:40:59;13.73;;;5.10;;
7669;SDS011;3877;42.562;27.636;2022-10-16T07:43:27;13.30;;;4.70;;
7669;SDS011;3877;42.562;27.636;2022-10-16T07:45:55;7.27;;;4.17;;
7669;SDS011;3877;42.562;27.636;2022-10-16T07:48:22;11.13;;;3.97;;
7669;SDS011;3877;42.562;27.636;2022-10-16T07:50:51;13.30;;;3.93;;
7669;SDS011;3877;42.562;27.636;2022-10-16T07:53:20;10.80;;;3.83;;
7669;SDS011;3877;42.562;27.636;2022-10-16T07:55:47;8.83;;;3.97;;
7669;SDS011;3877;42.562;27.636;2022-10-16T07:58:14;9.07;;;3.97;;
7669;SDS011;3877;42.562;27.636;2022-10-16T08:00:42;11.53;;;4.53;;
7669;SDS011;3877;42.562;27.636;2022-10-16T08:03:09;8.47;;;3.93;;
7669;SDS011;3877;42.562;27.636;2022-10-16T08:05:36;6.73;;;3.87;;
7669;SDS011;3877;42.562;27.636;2022-10-16T08:08:03;10.20;;;3.77;;
7669;SDS011;3877;42.562;27.636;2022-10-16T08:10:32;12.83;;;4.53;;
7669;SDS011;3877;42.562;27.636;2022-10-16T08:12:59;15.00;;;4.10;;
7669;SDS011;3877;42.562;27.636;2022-10-16T08:15:27;10.43;;;4.00;;
7669;SDS011;3877;42.562;27.636;2022-10-16T08:17:55;10.97;;;4.03;;
7669;SDS011;3877;42.562;27.636;2022-10-16T08:20:23;7.93;;;4.00;;
7669;SDS011;3877;42.562;27.636;2022-10-16T08:22:52;8.30;;;3.67;;
7669;SDS011;3877;42.562;27.636;2022-10-16T08:25:20;7.23;;;3.80;;
7669;SDS011;3877;42.562;27.636;2022-10-16T08:27:49;6.07;;;3.43;;
7669;SDS011;3877;42.562;27.636;2022-10-16T08:30:19;7.57;;;3.63;;
7669;SDS011;3877;42.562;27.636;2022-10-16T08:32:47;11.50;;;5.17;;
7669;SDS011;3877;42.562;27.636;2022-10-16T08:35:14;5.67;;;3.23;;
7669;SDS011;3877;42.562;27.636;2022-10-16T08:37:42;8.67;;;3.63;;
7669;SDS011;3877;42.562;27.636;2022-10-16T08:40:15;7.93;;;4.33;;
7669;SDS011;3877;42.562;27.636;2022-10-16T08:42:55;4.70;;;3.43;;
7669;SDS011;3877;42.562;27.636;2022-10-16T08:45:38;7.03;;;3.23;;
7669;SDS011;3877;42.562;27.636;2022-10-16T08:48:17;5.43;;;3.30;;
7669;SDS011;3877;42.562;27.636;2022-10-16T08:50:49;7.73;;;3.10;;
7669;SDS011;3877;42.562;27.636;2022-10-16T08:53:19;10.67;;;3.43;;
7669;SDS011;3877;42.562;27.636;2022-10-16T08:55:51;6.30;;;3.37;;
7669;SDS011;3877;42.562;27.636;2022-10-16T08:58:22;6.50;;;3.27;;
7669;SDS011;3877;42.562;27.636;2022-10-16T09:00:54;8.00;;;3.60;;
7669;SDS011;3877;42.562;27.636;2022-10-16T09:06:30;6.07;;;3.40;;
7669;SDS011;3877;42.562;27.636;2022-10-16T09:09:13;7.23;;;3.13;;
7669;SDS011;3877;42.562;27.636;2022-10-16T09:12:02;5.77;;;2.73;;
7669;SDS011;3877;42.562;27.636;2022-10-16T09:14:40;11.87;;;2.90;;
7669;SDS011;3877;42.562;27.636;2022-10-16T09:17:21;7.23;;;2.93;;
7669;SDS011;3877;42.562;27.636;2022-10-16T09:19:56;6.03;;;2.90;;
7669;SDS011;3877;42.562;27.636;2022-10-16T09:22:34;7.77;;;3.27;;
7669;SDS011;3877;42.562;27.636;2022-10-16T09:25:04;4.73;;;2.60;;
7669;SDS011;3877;42.562;27.636;2022-10-16T09:27:38;9.60;;;3.23;;
7669;SDS011;3877;42.562;27.636;2022-10-16T09:30:12;6.23;;;3.20;;
7669;SDS011;3877;42.562;27.636;2022-10-16T09:32:40;5.83;;;3.10;;
7669;SDS011;3877;42.562;27.636;2022-10-16T09:35:11;7.93;;;3.50;;
7669;SDS011;3877;42.562;27.636;2022-10-16T09:37:42;9.20;;;3.10;;
7669;SDS011;3877;42.562;27.636;2022-10-16T09:40:23;7.23;;;3.20;;
7669;SDS011;3877;42.562;27.636;2022-10-16T09:42:52;4.93;;;3.20;;
7669;SDS011;3877;42.562;27.636;2022-10-16T09:45:26;11.33;;;3.00;;
7669;SDS011;3877;42.562;27.636;2022-10-16T09:47:53;6.03;;;3.20;;
7669;SDS011;3877;42.562;27.636;2022-10-16T09:50:22;8.47;;;3.70;;
7669;SDS011;3877;42.562;27.636;2022-10-16T09:53:02;6.97;;;3.53;;
7669;SDS011;3877;42.562;27.636;2022-10-16T09:55:30;8.30;;;3.70;;
7669;SDS011;3877;42.562;27.636;2022-10-16T09:57:59;10.70;;;3.50;;
7669;SDS011;3877;42.562;27.636;2022-10-16T10:00:28;6.87;;;3.70;;
7669;SDS011;3877;42.562;27.636;2022-10-16T10:02:55;8.43;;;3.73;;
7669;SDS011;3877;42.562;27.636;2022-10-16T10:05:24;6.63;;;3.73;;
7669;SDS011;3877;42.562;27.636;2022-10-16T10:07:54;5.67;;;3.67;;
7669;SDS011;3877;42.562;27.636;2022-10-16T10:10:25;5.77;;;3.70;;
7669;SDS011;3877;42.562;27.636;2022-10-16T10:12:54;7.30;;;3.50;;
7669;SDS011;3877;42.562;27.636;2022-10-16T10:15:22;9.73;;;3.83;;
7669;SDS011;3877;42.562;27.636;2022-10-16T10:17:54;7.10;;;3.30;;
7669;SDS011;3877;42.562;27.636;2022-10-16T10:20:24;13.10;;;4.00;;
7669;SDS011;3877;42.562;27.636;2022-10-16T10:22:53;8.70;;;3.37;;
7669;SDS011;3877;42.562;27.636;2022-10-16T10:28:18;6.63;;;3.40;;
7669;SDS011;3877;42.562;27.636;2022-10-16T10:31:03;13.07;;;3.10;;
7669;SDS011;3877;42.562;27.636;2022-10-16T10:33:40;9.73;;;4.03;;
7669;SDS011;3877;42.562;27.636;2022-10-16T10:36:22;9.57;;;3.63;;
7669;SDS011;3877;42.562;27.636;2022-10-16T10:38:57;12.20;;;3.70;;
7669;SDS011;3877;42.562;27.636;2022-10-16T10:41:30;5.07;;;2.60;;
7669;SDS011;3877;42.562;27.636;2022-10-16T10:44:36;5.77;;;2.87;;
7669;SDS011;3877;42.562;27.636;2022-10-16T10:47:16;12.47;;;3.60;;
7669;SDS011;3877;42.562;27.636;2022-10-16T10:49:54;8.90;;;3.27;;
7669;SDS011;3877;42.562;27.636;2022-10-16T10:52:32;7.47;;;3.27;;
7669;SDS011;3877;42.562;27.636;2022-10-16T10:55:09;9.37;;;2.90;;
7669;SDS011;3877;42.562;27.636;2022-10-16T10:57:45;6.10;;;2.63;;
7669;SDS011;3877;42.562;27.636;2022-10-16T11:00:24;7.93;;;2.40;;
7669;SDS011;3877;42.562;27.636;2022-10-16T11:03:13;9.70;;;2.40;;
7669;SDS011;3877;42.562;27.636;2022-10-16T11:05:56;8.03;;;3.00;;
7669;SDS011;3877;42.562;27.636;2022-10-16T11:08:27;7.17;;;2.70;;
7669;SDS011;3877;42.562;27.636;2022-10-16T11:11:01;8.30;;;2.83;;
7669;SDS011;3877;42.562;27.636;2022-10-16T11:13:32;12.37;;;2.60;;
7669;SDS011;3877;42.562;27.636;2022-10-16T11:16:06;6.53;;;2.50;;
7669;SDS011;3877;42.562;27.636;2022-10-16T11:18:43;8.80;;;3.00;;
7669;SDS011;3877;42.562;27.636;2022-10-16T11:21:18;7.30;;;2.70;;
7669;SDS011;3877;42.562;27.636;2022-10-16T11:23:48;6.07;;;2.77;;
7669;SDS011;3877;42.562;27.636;2022-10-16T11:26:23;7.90;;;2.50;;
7669;SDS011;3877;42.562;27.636;2022-10-16T11:28:54;6.33;;;3.00;;
7669;SDS011;3877;42.562;27.636;2022-10-16T11:31:25;12.20;;;3.20;;
7669;SDS011;3877;42.562;27.636;2022-10-16T11:34:01;5.83;;;2.77;;
7669;SDS011;3877;42.562;27.636;2022-10-16T11:36:35;8.07;;;2.95;;
7669;SDS011;3877;42.562;27.636;2022-10-16T11:39:09;12.90;;;2.77;;
7669;SDS011;3877;42.562;27.636;2022-10-16T11:41:44;10.10;;;2.77;;
7669;SDS011;3877;42.562;27.636;2022-10-16T11:44:18;10.37;;;2.53;;
7669;SDS011;3877;42.562;27.636;2022-10-16T11:47:02;7.27;;;2.77;;
7669;SDS011;3877;42.562;27.636;2022-10-16T11:49:39;16.77;;;3.17;;
7669;SDS011;3877;42.562;27.636;2022-10-16T11:52:12;5.18;;;2.85;;
7669;SDS011;3877;42.562;27.636;2022-10-16T11:54:48;10.17;;;3.30;;
7669;SDS011;3877;42.562;27.636;2022-10-16T11:57:19;10.83;;;3.00;;
7669;SDS011;3877;42.562;27.636;2022-10-16T11:59:51;8.33;;;3.13;;
7669;SDS011;3877;42.562;27.636;2022-10-16T12:02:44;13.33;;;2.80;;
7669;SDS011;3877;42.562;27.636;2022-10-16T12:05:23;6.83;;;2.67;;
7669;SDS011;3877;42.562;27.636;2022-10-16T12:08:02;9.43;;;3.70;;
7669;SDS011;3877;42.562;27.636;2022-10-16T12:10:36;8.30;;;3.00;;
7669;SDS011;3877;42.562;27.636;2022-10-16T12:13:25;9.67;;;3.17;;
7669;SDS011;3877;42.562;27.636;2022-10-16T12:16:04;6.70;;;3.03;;
7669;SDS011;3877;42.562;27.636;2022-10-16T12:18:32;8.88;;;3.10;;
7669;SDS011;3877;42.562;27.636;2022-10-16T12:21:00;10.57;;;3.83;;
7669;SDS011;3877;42.562;27.636;2022-10-16T12:23:33;6.37;;;3.20;;
7669;SDS011;3877;42.562;27.636;2022-10-16T12:26:13;15.38;;;3.88;;
7669;SDS011;3877;42.562;27.636;2022-10-16T12:28:40;9.87;;;3.30;;
7669;SDS011;3877;42.562;27.636;2022-10-16T12:31:08;13.20;;;4.10;;
7669;SDS011;3877;42.562;27.636;2022-10-16T12:33:37;8.40;;;3.33;;
7669;SDS011;3877;42.562;27.636;2022-10-16T12:36:10;9.50;;;3.67;;
7669;SDS011;3877;42.562;27.636;2022-10-16T12:38:48;9.30;;;3.20;;
7669;SDS011;3877;42.562;27.636;2022-10-16T12:41:24;7.20;;;3.47;;
7669;SDS011;3877;42.562;27.636;2022-10-16T12:43:52;5.65;;;2.92;;
7669;SDS011;3877;42.562;27.636;2022-10-16T12:46:21;13.03;;;3.90;;
7669;SDS011;3877;42.562;27.636;2022-10-16T12:51:55;7.43;;;3.10;;
7669;SDS011;3877;42.562;27.636;2022-10-16T12:54:25;5.23;;;2.90;;
7669;SDS011;3877;42.562;27.636;2022-10-16T12:57:03;6.23;;;3.10;;
7669;SDS011;3877;42.562;27.636;2022-10-16T12:59:50;11.90;;;3.33;;
7669;SDS011;3877;42.562;27.636;2022-10-16T13:02:49;7.57;;;3.00;;
7669;SDS011;3877;42.562;27.636;2022-10-16T13:05:50;8.90;;;3.27;;
7669;SDS011;3877;42.562;27.636;2022-10-16T13:08:35;12.53;;;3.20;;
7669;SDS011;3877;42.562;27.636;2022-10-16T13:11:17;7.83;;;3.00;;
7669;SDS011;3877;42.562;27.636;2022-10-16T13:13:56;10.57;;;3.33;;
7669;SDS011;3877;42.562;27.636;2022-10-16T13:16:40;13.17;;;3.07;;
7669;SDS011;3877;42.562;27.636;2022-10-16T13:19:22;6.13;;;2.77;;
7669;SDS011;3877;42.562;27.636;2022-10-16T13:21:57;10.37;;;3.30;;
7669;SDS011;3877;42.562;27.636;2022-10-16T13:24:38;6.60;;;3.20;;
7669;SDS011;3877;42.562;27.636;2022-10-16T13:27:18;10.02;;;3.20;;
7669;SDS011;3877;42.562;27.636;2022-10-16T13:30:00;9.90;;;2.80;;
7669;SDS011;3877;42.562;27.636;2022-10-16T13:32:28;6.90;;;2.88;;
7669;SDS011;3877;42.562;27.636;2022-10-16T13:34:55;6.87;;;2.83;;
7669;SDS011;3877;42.562;27.636;2022-10-16T13:37:23;7.00;;;2.80;;
7669;SDS011;3877;42.562;27.636;2022-10-16T13:40:01;10.40;;;3.10;;
7669;SDS011;3877;42.562;27.636;2022-10-16T13:42:35;13.20;;;3.83;;
7669;SDS011;3877;42.562;27.636;2022-10-16T13:45:03;6.87;;;3.23;;
7669;SDS011;3877;42.562;27.636;2022-10-16T13:47:30;7.80;;;3.20;;
7669;SDS011;3877;42.562;27.636;2022-10-16T13:49:59;8.30;;;3.03;;
7669;SDS011;3877;42.562;27.636;2022-10-16T13:52:27;8.27;;;2.90;;
7669;SDS011;3877;42.562;27.636;2022-10-16T13:54:55;5.83;;;3.03;;
7669;SDS011;3877;42.562;27.636;2022-10-16T13:57:23;7.27;;;3.00;;
7669;SDS011;3877;42.562;27.636;2022-10-16T13:59:52;7.97;;;3.13;;
7669;SDS011;3877;42.562;27.636;2022-10-16T14:02:21;6.37;;;2.60;;
7669;SDS011;3877;42.562;27.636;2022-10-16T14:04:52;4.53;;;2.70;;
7669;SDS011;3877;42.562;27.636;2022-10-16T14:07:23;8.23;;;3.10;;
7669;SDS011;3877;42.562;27.636;2022-10-16T14:09:53;9.43;;;2.97;;
7669;SDS011;3877;42.562;27.636;2022-10-16T14:12:27;8.30;;;3.10;;
7669;SDS011;3877;42.562;27.636;2022-10-16T14:14:55;7.00;;;2.60;;
7669;SDS011;3877;42.562;27.636;2022-10-16T14:17:25;8.13;;;2.70;;
7669;SDS011;3877;42.562;27.636;2022-10-16T14:19:55;6.30;;;2.90;;
7669;SDS011;3877;42.562;27.636;2022-10-16T14:22:29;8.53;;;3.10;;
7669;SDS011;3877;42.562;27.636;2022-10-16T14:24:58;7.60;;;3.00;;
7669;SDS011;3877;42.562;27.636;2022-10-16T14:27:28;6.03;;;2.87;;
7669;SDS011;3877;42.562;27.636;2022-10-16T14:30:15;9.30;;;2.77;;
7669;SDS011;3877;42.562;27.636;2022-10-16T14:32:52;9.63;;;3.10;;
7669;SDS011;3877;42.562;27.636;2022-10-16T14:35:25;7.47;;;3.10;;
7669;SDS011;3877;42.562;27.636;2022-10-16T14:37:55;11.60;;;3.13;;
7669;SDS011;3877;42.562;27.636;2022-10-16T14:40:24;8.73;;;3.20;;
7669;SDS011;3877;42.562;27.636;2022-10-16T14:42:55;7.83;;;3.17;;
7669;SDS011;3877;42.562;27.636;2022-10-16T14:45:27;8.97;;;3.03;;
7669;SDS011;3877;42.562;27.636;2022-10-16T14:47:58;5.43;;;3.07;;
7669;SDS011;3877;42.562;27.636;2022-10-16T14:50:26;9.00;;;3.00;;
7669;SDS011;3877;42.562;27.636;2022-10-16T14:52:54;8.07;;;3.47;;
7669;SDS011;3877;42.562;27.636;2022-10-16T14:55:22;8.43;;;3.17;;
7669;SDS011;3877;42.562;27.636;2022-10-16T14:57:50;4.43;;;2.70;;
7669;SDS011;3877;42.562;27.636;2022-10-16T15:00:18;5.83;;;2.93;;
7669;SDS011;3877;42.562;27.636;2022-10-16T15:02:48;9.63;;;2.93;;
7669;SDS011;3877;42.562;27.636;2022-10-16T15:05:18;5.23;;;2.97;;
7669;SDS011;3877;42.562;27.636;2022-10-16T15:07:46;6.63;;;3.23;;
7669;SDS011;3877;42.562;27.636;2022-10-16T15:10:15;9.70;;;3.13;;
7669;SDS011;3877;42.562;27.636;2022-10-16T15:12:44;7.47;;;2.90;;
7669;SDS011;3877;42.562;27.636;2022-10-16T15:18:03;10.77;;;3.27;;
7669;SDS011;3877;42.562;27.636;2022-10-16T15:20:31;7.90;;;3.00;;
7669;SDS011;3877;42.562;27.636;2022-10-16T15:23:00;8.33;;;3.07;;
7669;SDS011;3877;42.562;27.636;2022-10-16T15:25:30;4.90;;;2.83;;